Time,TemperatureF,DewpointF,PressureIn,WindDirection,WindDirectionDegrees,WindSpeedMPH,WindSpeedGustMPH,Humidity,HourlyPrecipIn,Conditions,Clouds,dailyrainin,SoftwareType,DateUTC
2013-07-07 00:01:00,76.4,72.2,30.19,WSW,244,0.0,0.0,87,0.00,,,0.00,Wunderground v.1.15,2013-07-07 04:01:00,
2013-07-07 00:06:00,76.2,72.0,30.19,WSW,244,0.0,0.0,87,0.00,,,0.00,Wunderground v.1.15,2013-07-07 04:06:00,
2013-07-07 00:10:00,76.0,71.8,30.19,WSW,244,0.0,0.0,87,0.00,,,0.00,Wunderground v.1.15,2013-07-07 04:10:00,
2013-07-07 00:15:00,75.8,72.0,30.20,WSW,244,0.0,0.0,88,0.00,,,0.00,Wunderground v.1.15,2013-07-07 04:15:00,
2013-07-07 00:20:00,75.5,71.7,30.19,WSW,244,0.0,0.0,88,0.00,,,0.00,Wunderground v.1.15,2013-07-07 04:20:00,
2013-07-07 00:25:00,75.3,71.8,30.19,WSW,244,0.0,0.0,89,0.00,,,0.00,Wunderground v.1.15,2013-07-07 04:25:00,
2013-07-07 00:35:00,74.9,71.8,30.19,WSW,244,0.0,0.0,90,0.00,,,0.00,Wunderground v.1.15,2013-07-07 04:35:00,
2013-07-07 00:40:00,74.6,71.5,30.19,WSW,244,0.0,0.0,90,0.00,,,0.00,Wunderground v.1.15,2013-07-07 04:40:00,
2013-07-07 00:45:00,74.4,71.6,30.19,WSW,244,0.0,0.0,91,0.00,,,0.00,Wunderground v.1.15,2013-07-07 04:45:00,
2013-07-07 00:50:00,74.1,71.3,30.19,WSW,244,0.0,0.0,91,0.00,,,0.00,Wunderground v.1.15,2013-07-07 04:50:00,
2013-07-07 00:55:00,73.9,71.4,30.19,WSW,244,0.0,0.0,92,0.00,,,0.00,Wunderground v.1.15,2013-07-07 04:55:00,
2013-07-07 01:05:00,73.6,71.1,30.19,WSW,244,0.0,0.0,92,0.00,,,0.00,Wunderground v.1.15,2013-07-07 05:05:00,
2013-07-07 01:15:00,73.4,70.9,30.19,WSW,244,0.0,0.0,92,0.00,,,0.00,Wunderground v.1.15,2013-07-07 05:15:00,
2013-07-07 01:20:00,73.3,71.2,30.18,WSW,244,0.0,0.0,93,0.00,,,0.00,Wunderground v.1.15,2013-07-07 05:20:00,
2013-07-07 01:30:00,73.0,70.9,30.18,WSW,244,0.0,0.0,93,0.00,,,0.00,Wunderground v.1.15,2013-07-07 05:30:00,
2013-07-07 01:35:00,72.8,70.7,30.18,WSW,244,0.0,0.0,93,0.00,,,0.00,Wunderground v.1.15,2013-07-07 05:35:00,
2013-07-07 01:40:00,72.7,70.9,30.18,WSW,244,0.0,0.0,94,0.00,,,0.00,Wunderground v.1.15,2013-07-07 05:40:00,
2013-07-07 01:50:00,72.5,70.7,30.18,WSW,244,0.0,0.0,94,0.00,,,0.00,Wunderground v.1.15,2013-07-07 05:50:00,
2013-07-07 01:55:00,72.4,70.6,30.18,WSW,244,0.0,0.0,94,0.00,,,0.00,Wunderground v.1.15,2013-07-07 05:55:00,
2013-07-07 02:00:00,72.2,70.4,30.18,WSW,244,0.0,0.0,94,0.00,,,0.00,Wunderground v.1.15,2013-07-07 06:00:00,
2013-07-07 02:05:00,72.1,70.3,30.18,WSW,244,0.0,0.0,94,0.00,,,0.00,Wunderground v.1.15,2013-07-07 06:05:00,
2013-07-07 02:15:00,72.0,70.5,30.18,WSW,244,0.0,0.0,95,0.00,,,0.00,Wunderground v.1.15,2013-07-07 06:15:00,
2013-07-07 02:20:00,71.9,70.4,30.18,WSW,244,0.0,0.0,95,0.00,,,0.00,Wunderground v.1.15,2013-07-07 06:20:00,
2013-07-07 02:25:00,71.7,70.2,30.17,WSW,244,0.0,0.0,95,0.00,,,0.00,Wunderground v.1.15,2013-07-07 06:25:00,
2013-07-07 02:30:00,71.6,70.1,30.17,WSW,244,0.0,0.0,95,0.00,,,0.00,Wunderground v.1.15,2013-07-07 06:30:00,
2013-07-07 02:35:00,71.5,70.0,30.17,WSW,244,0.0,0.0,95,0.00,,,0.00,Wunderground v.1.15,2013-07-07 06:35:00,
2013-07-07 02:40:00,71.4,69.9,30.17,WSW,244,0.0,0.0,95,0.00,,,0.00,Wunderground v.1.15,2013-07-07 06:40:00,
2013-07-07 02:50:00,71.3,69.8,30.17,WSW,244,0.0,0.0,95,0.00,,,0.00,Wunderground v.1.15,2013-07-07 06:50:00,
2013-07-07 02:55:00,71.2,69.7,30.17,WSW,244,0.0,0.0,95,0.00,,,0.00,Wunderground v.1.15,2013-07-07 06:55:00,
2013-07-07 03:00:00,71.0,69.8,30.17,WSW,244,0.0,0.0,96,0.00,,,0.00,Wunderground v.1.15,2013-07-07 07:00:00,
2013-07-07 03:05:00,71.0,69.8,30.17,WSW,244,0.0,0.0,96,0.00,,,0.00,Wunderground v.1.15,2013-07-07 07:05:00,
2013-07-07 03:15:00,70.8,69.6,30.17,WSW,244,0.0,0.0,96,0.00,,,0.00,Wunderground v.1.15,2013-07-07 07:15:00,
2013-07-07 03:20:00,70.7,69.5,30.17,WSW,244,0.0,0.0,96,0.00,,,0.00,Wunderground v.1.15,2013-07-07 07:20:00,
2013-07-07 03:30:00,70.6,69.4,30.16,WSW,244,0.0,0.0,96,0.00,,,0.00,Wunderground v.1.15,2013-07-07 07:30:00,
2013-07-07 03:35:00,70.5,69.3,30.16,WSW,244,0.0,0.0,96,0.00,,,0.00,Wunderground v.1.15,2013-07-07 07:35:00,
2013-07-07 03:40:00,70.4,69.2,30.16,WSW,244,0.0,0.0,96,0.00,,,0.00,Wunderground v.1.15,2013-07-07 07:40:00,
2013-07-07 03:45:00,70.3,69.1,30.16,WSW,244,0.0,0.0,96,0.00,,,0.00,Wunderground v.1.15,2013-07-07 07:45:00,
2013-07-07 03:55:00,70.1,68.9,30.16,WSW,244,0.0,0.0,96,0.00,,,0.00,Wunderground v.1.15,2013-07-07 07:55:00,
2013-07-07 04:00:00,69.9,68.7,30.16,WSW,244,0.0,0.0,96,0.00,,,0.00,Wunderground v.1.15,2013-07-07 08:00:00,
2013-07-07 04:05:00,69.8,68.6,30.16,WSW,244,0.0,0.0,96,0.00,,,0.00,Wunderground v.1.15,2013-07-07 08:05:00,
2013-07-07 04:15:00,69.6,68.7,30.16,WSW,244,0.0,0.0,97,0.00,,,0.00,Wunderground v.1.15,2013-07-07 08:15:00,
2013-07-07 04:20:00,69.5,68.6,30.16,WSW,244,0.0,0.0,97,0.00,,,0.00,Wunderground v.1.15,2013-07-07 08:20:00,
2013-07-07 04:25:00,69.5,68.6,30.16,WSW,244,0.0,0.0,97,0.00,,,0.00,Wunderground v.1.15,2013-07-07 08:25:00,
2013-07-07 04:35:00,69.4,68.5,30.16,WSW,244,0.0,0.0,97,0.00,,,0.00,Wunderground v.1.15,2013-07-07 08:35:00,
2013-07-07 04:40:00,69.3,68.4,30.16,WSW,244,0.0,0.0,97,0.00,,,0.00,Wunderground v.1.15,2013-07-07 08:40:00,
2013-07-07 04:45:00,69.2,68.3,30.16,WSW,244,0.0,0.0,97,0.00,,,0.00,Wunderground v.1.15,2013-07-07 08:45:00,
2013-07-07 04:55:00,69.2,68.3,30.17,WSW,244,0.0,0.0,97,0.00,,,0.00,Wunderground v.1.15,2013-07-07 08:55:00,
2013-07-07 05:00:00,69.2,68.6,30.17,WSW,244,0.0,0.0,98,0.00,,,0.00,Wunderground v.1.15,2013-07-07 09:00:00,
2013-07-07 05:05:00,69.2,68.6,30.17,WSW,244,0.0,0.0,98,0.00,,,0.00,Wunderground v.1.15,2013-07-07 09:05:00,
2013-07-07 05:15:00,69.2,68.6,30.17,WSW,244,0.0,0.0,98,0.00,,,0.00,Wunderground v.1.15,2013-07-07 09:15:00,
2013-07-07 05:20:00,69.1,68.5,30.17,WSW,244,0.0,0.0,98,0.00,,,0.00,Wunderground v.1.15,2013-07-07 09:20:00,
2013-07-07 05:25:00,69.1,68.5,30.17,WSW,244,0.0,0.0,98,0.00,,,0.00,Wunderground v.1.15,2013-07-07 09:25:00,
2013-07-07 05:35:00,69.1,68.5,30.17,WSW,244,0.0,0.0,98,0.00,,,0.00,Wunderground v.1.15,2013-07-07 09:35:00,
2013-07-07 05:40:00,69.1,68.5,30.17,WSW,244,0.0,0.0,98,0.00,,,0.00,Wunderground v.1.15,2013-07-07 09:40:00,
2013-07-07 05:45:00,69.2,68.6,30.17,WSW,244,0.0,0.0,98,0.00,,,0.00,Wunderground v.1.15,2013-07-07 09:45:00,
2013-07-07 05:50:00,69.2,68.6,30.17,WSW,244,0.0,0.0,98,0.00,,,0.00,Wunderground v.1.15,2013-07-07 09:50:00,
2013-07-07 06:00:00,69.2,68.6,30.17,WSW,244,0.0,0.0,98,0.00,,,0.00,Wunderground v.1.15,2013-07-07 10:00:00,
2013-07-07 06:05:00,69.2,68.6,30.17,WSW,244,0.0,0.0,98,0.00,,,0.00,Wunderground v.1.15,2013-07-07 10:05:00,
2013-07-07 06:15:00,69.3,69.0,30.18,WSW,244,0.0,0.0,99,0.00,,,0.00,Wunderground v.1.15,2013-07-07 10:15:00,
2013-07-07 06:20:00,69.5,69.2,30.18,WSW,244,0.0,0.0,99,0.00,,,0.00,Wunderground v.1.15,2013-07-07 10:20:00,
2013-07-07 06:25:00,69.6,69.3,30.18,WSW,244,0.0,0.0,99,0.00,,,0.00,Wunderground v.1.15,2013-07-07 10:25:00,
2013-07-07 06:30:00,69.6,69.3,30.18,WSW,244,0.0,0.0,99,0.00,,,0.00,Wunderground v.1.15,2013-07-07 10:30:00,
2013-07-07 06:40:00,69.9,69.6,30.18,WSW,244,0.0,0.0,99,0.00,,,0.00,Wunderground v.1.15,2013-07-07 10:40:00,
2013-07-07 06:45:00,70.1,69.8,30.18,WSW,244,0.0,0.0,99,0.00,,,0.00,Wunderground v.1.15,2013-07-07 10:45:00,
2013-07-07 06:50:00,70.2,69.9,30.18,WSW,244,0.0,0.0,99,0.00,,,0.00,Wunderground v.1.15,2013-07-07 10:50:00,
2013-07-07 06:55:00,70.3,70.0,30.18,WSW,244,0.0,0.0,99,0.00,,,0.00,Wunderground v.1.15,2013-07-07 10:55:00,
2013-07-07 07:00:00,70.3,70.0,30.18,WSW,244,0.0,0.0,99,0.00,,,0.00,Wunderground v.1.15,2013-07-07 11:00:00,
2013-07-07 07:05:00,70.4,70.1,30.18,WSW,244,0.0,0.0,99,0.00,,,0.00,Wunderground v.1.15,2013-07-07 11:05:00,
2013-07-07 07:15:00,70.4,70.1,30.19,WSW,244,0.0,0.0,99,0.00,,,0.00,Wunderground v.1.15,2013-07-07 11:15:00,
2013-07-07 07:20:00,70.6,70.3,30.19,WSW,244,0.0,0.0,99,0.00,,,0.00,Wunderground v.1.15,2013-07-07 11:20:00,
2013-07-07 07:25:00,70.7,70.4,30.19,WSW,244,0.0,0.0,99,0.00,,,0.00,Wunderground v.1.15,2013-07-07 11:25:00,
2013-07-07 07:30:00,70.8,70.5,30.19,WSW,244,0.0,0.0,99,0.00,,,0.00,Wunderground v.1.15,2013-07-07 11:30:00,
2013-07-07 07:35:00,71.0,70.7,30.19,WSW,244,0.0,0.0,99,0.00,,,0.00,Wunderground v.1.15,2013-07-07 11:35:00,
2013-07-07 07:40:00,71.2,70.9,30.19,WSW,255,0.0,2.0,99,0.00,,,0.00,Wunderground v.1.15,2013-07-07 11:40:00,
2013-07-07 07:50:00,71.5,71.2,30.19,WSW,255,0.0,0.0,99,0.00,,,0.00,Wunderground v.1.15,2013-07-07 11:50:00,
2013-07-07 07:55:00,71.7,71.4,30.19,WSW,255,0.0,0.0,99,0.00,,,0.00,Wunderground v.1.15,2013-07-07 11:55:00,
2013-07-07 08:00:00,71.9,71.9,30.18,WSW,255,0.0,0.0,100,0.00,,,0.00,Wunderground v.1.15,2013-07-07 12:00:00,
2013-07-07 08:05:00,72.1,72.1,30.18,WSW,255,0.0,0.0,100,0.00,,,0.00,Wunderground v.1.15,2013-07-07 12:05:00,
2013-07-07 08:15:00,72.5,72.5,30.18,WSW,255,0.0,0.0,100,0.00,,,0.00,Wunderground v.1.15,2013-07-07 12:15:00,
2013-07-07 08:20:00,72.6,72.3,30.18,WSW,255,0.0,0.0,99,0.00,,,0.00,Wunderground v.1.15,2013-07-07 12:20:00,
2013-07-07 08:30:00,73.1,72.8,30.18,SSW,210,0.0,0.0,99,0.00,,,0.00,Wunderground v.1.15,2013-07-07 12:30:00,
2013-07-07 08:35:00,73.2,72.9,30.19,WSW,252,0.0,0.0,99,0.00,,,0.00,Wunderground v.1.15,2013-07-07 12:35:00,
2013-07-07 08:40:00,73.5,73.2,30.19,WSW,252,0.0,0.0,99,0.00,,,0.00,Wunderground v.1.15,2013-07-07 12:40:00,
2013-07-07 08:45:00,73.7,73.4,30.19,WSW,257,0.0,0.0,99,0.00,,,0.00,Wunderground v.1.15,2013-07-07 12:45:00,
2013-07-07 08:55:00,74.2,73.6,30.19,WSW,255,1.0,1.0,98,0.00,,,0.00,Wunderground v.1.15,2013-07-07 12:55:00,
2013-07-07 09:00:00,74.5,73.9,30.19,WSW,255,0.0,0.0,98,0.00,,,0.00,Wunderground v.1.15,2013-07-07 13:00:00,
2013-07-07 09:05:00,75.0,74.1,30.19,South,181,0.0,1.0,97,0.00,,,0.00,Wunderground v.1.15,2013-07-07 13:05:00,
2013-07-07 09:15:00,75.8,74.6,30.19,WSW,251,1.0,1.0,96,0.00,,,0.00,Wunderground v.1.15,2013-07-07 13:15:00,
2013-07-07 09:20:00,76.2,74.7,30.19,West,271,0.0,0.0,95,0.00,,,0.00,Wunderground v.1.15,2013-07-07 13:20:00,
2013-07-07 09:25:00,76.6,74.4,30.18,South,182,1.0,1.0,93,0.00,,,0.00,Wunderground v.1.15,2013-07-07 13:25:00,
2013-07-07 09:35:00,77.3,74.8,30.18,SW,218,1.0,1.0,92,0.00,,,0.00,Wunderground v.1.15,2013-07-07 13:35:00,
2013-07-07 09:40:00,77.7,75.2,30.18,SW,218,0.0,0.0,92,0.00,,,0.00,Wunderground v.1.15,2013-07-07 13:40:00,
2013-07-07 09:45:00,77.8,74.6,30.18,SSE,161,0.0,0.0,90,0.00,,,0.00,Wunderground v.1.15,2013-07-07 13:45:00,
2013-07-07 09:50:00,77.9,74.7,30.18,WSW,242,0.0,0.0,90,0.00,,,0.00,Wunderground v.1.15,2013-07-07 13:50:00,
2013-07-07 10:00:00,77.9,74.4,30.18,South,186,0.0,0.0,89,0.00,,,0.00,Wunderground v.1.15,2013-07-07 14:00:00,
2013-07-07 10:05:00,78.1,74.3,30.18,WSW,244,0.0,0.0,88,0.00,,,0.00,Wunderground v.1.15,2013-07-07 14:05:00,
2013-07-07 10:15:00,78.7,74.5,30.18,SSE,154,1.0,1.0,87,0.00,,,0.00,Wunderground v.1.15,2013-07-07 14:15:00,
2013-07-07 10:20:00,79.3,74.7,30.17,NW,311,1.0,1.0,86,0.00,,,0.00,Wunderground v.1.15,2013-07-07 14:20:00,
2013-07-07 10:25:00,79.5,74.2,30.17,South,185,1.0,3.0,84,0.00,,,0.00,Wunderground v.1.15,2013-07-07 14:25:00,
2013-07-07 10:30:00,79.3,74.0,30.18,SW,215,1.0,1.0,84,0.00,,,0.00,Wunderground v.1.15,2013-07-07 14:30:00,
2013-07-07 10:40:00,79.2,74.6,30.18,SW,215,0.0,1.0,86,0.00,,,0.00,Wunderground v.1.15,2013-07-07 14:40:00,
2013-07-07 10:45:00,79.1,74.5,30.18,SW,215,0.0,1.0,86,0.00,,,0.00,Wunderground v.1.15,2013-07-07 14:45:00,
2013-07-07 10:50:00,79.1,74.5,30.18,West,259,1.0,1.0,86,0.00,,,0.00,Wunderground v.1.15,2013-07-07 14:50:00,
2013-07-07 11:00:00,79.1,74.2,30.18,WSW,245,1.0,2.0,85,0.00,,,0.00,Wunderground v.1.15,2013-07-07 15:00:00,
2013-07-07 11:05:00,79.4,74.8,30.18,SW,227,0.0,2.0,86,0.00,,,0.00,Wunderground v.1.15,2013-07-07 15:05:00,
2013-07-07 11:15:00,80.2,75.3,30.18,WSW,254,0.0,0.0,85,0.00,,,0.00,Wunderground v.1.15,2013-07-07 15:15:00,
2013-07-07 11:20:00,80.7,74.3,30.18,SE,145,1.0,1.0,81,0.00,,,0.00,Wunderground v.1.15,2013-07-07 15:20:00,
2013-07-07 11:25:00,80.5,74.9,30.18,SSW,195,2.0,2.0,83,0.00,,,0.00,Wunderground v.1.15,2013-07-07 15:25:00,
2013-07-07 11:30:00,80.4,75.1,30.18,SSW,195,1.0,1.0,84,0.00,,,0.00,Wunderground v.1.15,2013-07-07 15:30:00,
2013-07-07 11:40:00,80.7,75.4,30.18,SW,221,0.0,3.0,84,0.00,,,0.00,Wunderground v.1.15,2013-07-07 15:40:00,
2013-07-07 11:45:00,81.4,75.4,30.17,South,186,1.0,3.0,82,0.00,,,0.00,Wunderground v.1.15,2013-07-07 15:45:00,
2013-07-07 11:50:00,81.4,75.0,30.18,South,190,1.0,1.0,81,0.00,,,0.00,Wunderground v.1.15,2013-07-07 15:50:00,
2013-07-07 11:55:00,81.4,75.4,30.18,NW,308,0.0,1.0,82,0.00,,,0.00,Wunderground v.1.15,2013-07-07 15:55:00,
2013-07-07 12:05:00,81.3,76.0,30.18,West,265,0.0,0.0,84,0.00,,,0.00,Wunderground v.1.15,2013-07-07 16:05:00,
2013-07-07 12:15:00,81.5,76.6,30.17,South,191,0.0,0.0,85,0.00,,,0.00,Wunderground v.1.15,2013-07-07 16:15:00,
2013-07-07 12:20:00,81.7,76.0,30.17,South,188,0.0,0.0,83,0.00,,,0.00,Wunderground v.1.15,2013-07-07 16:20:00,
2013-07-07 12:25:00,81.9,76.2,30.17,West,275,0.0,0.0,83,0.00,,,0.00,Wunderground v.1.15,2013-07-07 16:25:00,
2013-07-07 12:30:00,82.4,76.3,30.17,West,275,0.0,0.0,82,0.00,,,0.00,Wunderground v.1.15,2013-07-07 16:30:00,
2013-07-07 12:35:00,82.8,77.1,30.17,West,275,0.0,0.0,83,0.00,,,0.00,Wunderground v.1.15,2013-07-07 16:35:00,
2013-07-07 12:45:00,83.0,75.8,30.17,SSE,165,0.0,4.0,79,0.00,,,0.00,Wunderground v.1.15,2013-07-07 16:45:00,
2013-07-07 12:50:00,83.4,76.2,30.16,WSW,237,1.0,1.0,79,0.00,,,0.00,Wunderground v.1.15,2013-07-07 16:50:00,
2013-07-07 12:55:00,83.2,76.0,30.16,WSW,237,1.0,1.0,79,0.00,,,0.00,Wunderground v.1.15,2013-07-07 16:55:00,
2013-07-07 13:00:00,83.2,76.0,30.16,SW,217,0.0,1.0,79,0.00,,,0.00,Wunderground v.1.15,2013-07-07 17:00:00,
2013-07-07 13:05:00,83.6,76.0,30.16,South,176,1.0,1.0,78,0.00,,,0.00,Wunderground v.1.15,2013-07-07 17:05:00,
2013-07-07 13:15:00,84.7,76.3,30.15,WSW,242,1.0,3.0,76,0.00,,,0.00,Wunderground v.1.15,2013-07-07 17:15:00,
2013-07-07 13:20:00,84.9,77.3,30.15,WSW,242,1.0,1.0,78,0.00,,,0.00,Wunderground v.1.15,2013-07-07 17:20:00,
2013-07-07 13:25:00,85.1,77.1,30.14,SW,230,0.0,2.0,77,0.00,,,0.00,Wunderground v.1.15,2013-07-07 17:25:00,
2013-07-07 13:30:00,85.5,77.5,30.15,SW,222,1.0,1.0,77,0.00,,,0.00,Wunderground v.1.15,2013-07-07 17:30:00,
2013-07-07 13:35:00,85.5,77.5,30.14,SW,220,0.0,1.0,77,0.00,,,0.00,Wunderground v.1.15,2013-07-07 17:35:00,
2013-07-07 13:40:00,86.1,77.6,30.14,SSW,195,1.0,1.0,76,0.00,,,0.00,Wunderground v.1.15,2013-07-07 17:40:00,
2013-07-07 13:50:00,86.3,76.6,30.14,WSW,251,1.0,2.0,73,0.00,,,0.00,Wunderground v.1.15,2013-07-07 17:50:00,
2013-07-07 13:55:00,86.4,77.9,30.14,SSE,167,1.0,2.0,76,0.00,,,0.00,Wunderground v.1.15,2013-07-07 17:55:00,
2013-07-07 14:00:00,86.4,76.7,30.14,SSE,158,1.0,1.0,73,0.00,,,0.00,Wunderground v.1.15,2013-07-07 18:00:00,
2013-07-07 14:05:00,86.2,76.9,30.14,SSE,164,1.0,1.0,74,0.00,,,0.00,Wunderground v.1.15,2013-07-07 18:05:00,
2013-07-07 14:15:00,86.4,77.9,30.13,SSE,155,0.0,1.0,76,0.00,,,0.00,Wunderground v.1.15,2013-07-07 18:15:00,
2013-07-07 14:20:00,86.5,76.8,30.13,SSE,155,0.0,0.0,73,0.00,,,0.00,Wunderground v.1.15,2013-07-07 18:20:00,
2013-07-07 14:30:00,87.3,77.6,30.13,WNW,286,0.0,1.0,73,0.00,,,0.00,Wunderground v.1.15,2013-07-07 18:30:00,
2013-07-07 14:35:00,88.0,77.4,30.12,WSW,239,0.0,1.0,71,0.00,,,0.00,Wunderground v.1.15,2013-07-07 18:35:00,
2013-07-07 14:40:00,88.1,77.1,30.12,WSW,238,0.0,0.0,70,0.00,,,0.00,Wunderground v.1.15,2013-07-07 18:40:00,
2013-07-07 14:45:00,88.2,78.0,30.12,WSW,238,0.0,0.0,72,0.00,,,0.00,Wunderground v.1.15,2013-07-07 18:45:00,
2013-07-07 14:55:00,87.3,77.6,30.11,SSE,166,1.0,5.0,73,0.00,,,0.00,Wunderground v.1.15,2013-07-07 18:55:00,
2013-07-07 15:00:00,86.8,77.1,30.12,SSW,198,1.0,1.0,73,0.00,,,0.00,Wunderground v.1.15,2013-07-07 19:00:00,
2013-07-07 15:05:00,86.2,76.9,30.12,SSW,199,0.0,2.0,74,0.00,,,0.00,Wunderground v.1.15,2013-07-07 19:05:00,
2013-07-07 15:15:00,86.1,78.4,30.11,SW,229,0.0,0.0,78,0.00,,,0.00,Wunderground v.1.15,2013-07-07 19:15:00,
2013-07-07 15:20:00,86.1,77.2,30.11,SW,236,0.0,0.0,75,0.00,,,0.00,Wunderground v.1.15,2013-07-07 19:20:00,
2013-07-07 15:25:00,85.9,77.5,30.11,SW,236,0.0,0.0,76,0.00,,,0.00,Wunderground v.1.15,2013-07-07 19:25:00,
2013-07-07 15:35:00,86.1,76.4,30.10,SE,146,0.0,2.0,73,0.00,,,0.00,Wunderground v.1.15,2013-07-07 19:35:00,
2013-07-07 15:40:00,86.0,76.3,30.10,SW,235,0.0,0.0,73,0.00,,,0.00,Wunderground v.1.15,2013-07-07 19:40:00,
2013-07-07 15:45:00,85.9,77.5,30.10,SW,235,0.0,0.0,76,0.00,,,0.00,Wunderground v.1.15,2013-07-07 19:45:00,
2013-07-07 15:55:00,86.6,77.3,30.10,WSW,254,0.0,0.0,74,0.00,,,0.00,Wunderground v.1.15,2013-07-07 19:55:00,
2013-07-07 16:00:00,87.0,76.5,30.10,WSW,254,0.0,0.0,71,0.00,,,0.00,Wunderground v.1.15,2013-07-07 20:00:00,
2013-07-07 16:05:00,87.1,77.8,30.10,WSW,254,0.0,1.0,74,0.00,,,0.00,Wunderground v.1.15,2013-07-07 20:05:00,
2013-07-07 16:15:00,87.1,77.0,30.09,SSW,193,0.0,1.0,72,0.00,,,0.00,Wunderground v.1.15,2013-07-07 20:15:00,
2013-07-07 16:20:00,87.1,77.0,30.09,WNW,298,0.0,0.0,72,0.00,,,0.00,Wunderground v.1.15,2013-07-07 20:20:00,
2013-07-07 16:30:00,87.1,77.0,30.09,SW,231,0.0,0.0,72,0.00,,,0.00,Wunderground v.1.15,2013-07-07 20:30:00,
2013-07-07 16:35:00,86.9,77.6,30.09,SSE,157,0.0,0.0,74,0.00,,,0.00,Wunderground v.1.15,2013-07-07 20:35:00,
2013-07-07 16:40:00,87.1,78.2,30.08,South,185,0.0,0.0,75,0.00,,,0.00,Wunderground v.1.15,2013-07-07 20:40:00,
2013-07-07 16:45:00,87.1,76.5,30.08,South,185,0.0,0.0,71,0.00,,,0.00,Wunderground v.1.15,2013-07-07 20:45:00,
2013-07-07 16:50:00,87.0,76.9,30.08,SW,218,0.0,5.0,72,0.00,,,0.00,Wunderground v.1.15,2013-07-07 20:50:00,
2013-07-07 17:00:00,86.0,76.3,30.08,WNW,295,0.0,0.0,73,0.00,,,0.00,Wunderground v.1.15,2013-07-07 21:00:00,
2013-07-07 17:05:00,85.8,76.5,30.08,WNW,295,0.0,0.0,74,0.00,,,0.00,Wunderground v.1.15,2013-07-07 21:05:00,
2013-07-07 17:15:00,85.8,77.4,30.07,South,177,0.0,0.0,76,0.00,,,0.00,Wunderground v.1.15,2013-07-07 21:15:00,
2013-07-07 17:20:00,85.8,77.0,30.07,South,177,0.0,0.0,75,0.00,,,0.00,Wunderground v.1.15,2013-07-07 21:20:00,
2013-07-07 17:25:00,85.7,76.0,30.07,West,261,0.0,1.0,73,0.00,,,0.00,Wunderground v.1.15,2013-07-07 21:25:00,
2013-07-07 17:35:00,85.9,77.1,30.06,WSW,249,0.0,1.0,75,0.00,,,0.00,Wunderground v.1.15,2013-07-07 21:35:00,
2013-07-07 17:40:00,85.7,77.7,30.06,North,11,0.0,0.0,77,0.00,,,0.00,Wunderground v.1.15,2013-07-07 21:40:00,
2013-07-07 17:45:00,85.3,76.9,30.06,North,11,0.0,0.0,76,0.00,,,0.00,Wunderground v.1.15,2013-07-07 21:45:00,
2013-07-07 17:50:00,85.0,76.2,30.06,SW,215,0.0,0.0,75,0.00,,,0.00,Wunderground v.1.15,2013-07-07 21:50:00,
2013-07-07 17:55:00,84.8,75.6,30.06,SW,215,0.0,0.0,74,0.00,,,0.00,Wunderground v.1.15,2013-07-07 21:55:00,
2013-07-07 18:05:00,85.0,77.0,30.06,WNW,283,0.0,0.0,77,0.00,,,0.00,Wunderground v.1.15,2013-07-07 22:05:00,
2013-07-07 18:15:00,85.3,76.9,30.06,SW,223,0.0,0.0,76,0.00,,,0.00,Wunderground v.1.15,2013-07-07 22:15:00,
2013-07-07 18:20:00,85.5,76.7,30.06,WSW,248,0.0,0.0,75,0.00,,,0.00,Wunderground v.1.15,2013-07-07 22:20:00,
2013-07-07 18:25:00,85.4,77.0,30.06,WSW,248,0.0,0.0,76,0.00,,,0.00,Wunderground v.1.15,2013-07-07 22:25:00,
2013-07-07 18:30:00,85.1,77.1,30.06,NW,304,0.0,0.0,77,0.00,,,0.00,Wunderground v.1.15,2013-07-07 22:30:00,
2013-07-07 18:35:00,84.8,77.6,30.07,SW,236,0.0,0.0,79,0.00,,,0.00,Wunderground v.1.15,2013-07-07 22:35:00,
2013-07-07 18:45:00,84.0,76.8,30.06,SW,236,0.0,0.0,79,0.00,,,0.00,Wunderground v.1.15,2013-07-07 22:45:00,
2013-07-07 18:50:00,83.6,76.8,30.07,SW,236,0.0,0.0,80,0.00,,,0.00,Wunderground v.1.15,2013-07-07 22:50:00,
2013-07-07 18:55:00,83.5,77.4,30.06,SW,236,0.0,0.0,82,0.00,,,0.00,Wunderground v.1.15,2013-07-07 22:55:00,
2013-07-07 19:05:00,83.2,76.8,30.06,SW,236,0.0,0.0,81,0.00,,,0.00,Wunderground v.1.15,2013-07-07 23:05:00,
2013-07-07 19:15:00,83.0,76.6,30.07,SW,236,0.0,0.0,81,0.00,,,0.00,Wunderground v.1.15,2013-07-07 23:15:00,
2013-07-07 19:20:00,83.1,76.7,30.07,SW,236,0.0,0.0,81,0.00,,,0.00,Wunderground v.1.15,2013-07-07 23:20:00,
2013-07-07 19:25:00,83.0,76.6,30.07,SW,236,0.0,0.0,81,0.00,,,0.00,Wunderground v.1.15,2013-07-07 23:25:00,
2013-07-07 19:30:00,82.9,76.5,30.07,SW,236,0.0,0.0,81,0.00,,,0.00,Wunderground v.1.15,2013-07-07 23:30:00,
2013-07-07 19:40:00,82.7,77.0,30.07,SW,236,0.0,0.0,83,0.00,,,0.00,Wunderground v.1.15,2013-07-07 23:40:00,
2013-07-07 19:45:00,82.4,76.0,30.07,SW,236,0.0,0.0,81,0.00,,,0.00,Wunderground v.1.15,2013-07-07 23:45:00,
2013-07-07 19:50:00,82.2,76.5,30.07,SW,236,0.0,0.0,83,0.00,,,0.00,Wunderground v.1.15,2013-07-07 23:50:00,
2013-07-07 19:55:00,82.1,77.1,30.07,SW,236,0.0,0.0,85,0.00,,,0.00,Wunderground v.1.15,2013-07-07 23:55:00,
2013-07-07 20:00:00,81.9,76.9,30.07,SW,236,0.0,0.0,85,0.00,,,0.00,Wunderground v.1.15,2013-07-08 00:00:00,
2013-07-07 20:05:00,81.5,76.6,30.07,SW,236,0.0,0.0,85,0.00,,,0.00,Wunderground v.1.15,2013-07-08 00:05:00,
2013-07-07 20:15:00,81.0,76.8,30.08,SW,236,0.0,0.0,87,0.00,,,0.00,Wunderground v.1.15,2013-07-08 00:15:00,
2013-07-07 20:20:00,80.8,76.6,30.08,SW,236,0.0,0.0,87,0.00,,,0.00,Wunderground v.1.15,2013-07-08 00:20:00,
2013-07-07 20:25:00,80.5,76.6,30.08,SW,236,0.0,0.0,88,0.00,,,0.00,Wunderground v.1.15,2013-07-08 00:25:00,
2013-07-07 20:30:00,80.2,76.3,30.08,SW,236,0.0,0.0,88,0.00,,,0.00,Wunderground v.1.15,2013-07-08 00:30:00,
2013-07-07 20:35:00,79.9,76.0,30.08,SW,236,0.0,0.0,88,0.00,,,0.00,Wunderground v.1.15,2013-07-08 00:35:00,
2013-07-07 20:45:00,79.4,75.9,30.08,SW,236,0.0,0.0,89,0.00,,,0.00,Wunderground v.1.15,2013-07-08 00:45:00,
2013-07-07 20:50:00,79.2,75.7,30.08,SW,236,0.0,0.0,89,0.00,,,0.00,Wunderground v.1.15,2013-07-08 00:50:00,
2013-07-07 20:55:00,78.9,75.7,30.09,SW,236,0.0,0.0,90,0.00,,,0.00,Wunderground v.1.15,2013-07-08 00:55:00,
2013-07-07 21:00:00,78.7,75.5,30.09,SW,236,0.0,0.0,90,0.00,,,0.00,Wunderground v.1.15,2013-07-08 01:00:00,
2013-07-07 21:05:00,78.5,75.3,30.09,SW,236,0.0,0.0,90,0.00,,,0.00,Wunderground v.1.15,2013-07-08 01:05:00,
2013-07-07 21:15:00,78.0,75.2,30.10,SW,236,0.0,0.0,91,0.00,,,0.00,Wunderground v.1.15,2013-07-08 01:15:00,
2013-07-07 21:20:00,77.8,75.0,30.10,SW,236,0.0,0.0,91,0.00,,,0.00,Wunderground v.1.15,2013-07-08 01:20:00,
2013-07-07 21:25:00,77.6,75.1,30.11,SW,236,0.0,0.0,92,0.00,,,0.00,Wunderground v.1.15,2013-07-08 01:25:00,
2013-07-07 21:30:00,77.4,74.9,30.11,SW,236,0.0,0.0,92,0.00,,,0.00,Wunderground v.1.15,2013-07-08 01:30:00,
2013-07-07 21:35:00,77.2,74.7,30.11,SW,236,0.0,0.0,92,0.00,,,0.00,Wunderground v.1.15,2013-07-08 01:35:00,
2013-07-07 21:40:00,77.0,74.8,30.11,SW,236,0.0,0.0,93,0.00,,,0.00,Wunderground v.1.15,2013-07-08 01:40:00,
2013-07-07 21:50:00,76.7,74.5,30.11,SW,236,0.0,0.0,93,0.00,,,0.00,Wunderground v.1.15,2013-07-08 01:50:00,
2013-07-07 21:55:00,76.6,74.4,30.11,SW,236,0.0,0.0,93,0.00,,,0.00,Wunderground v.1.15,2013-07-08 01:55:00,
2013-07-07 22:00:00,76.5,74.6,30.12,SW,236,0.0,0.0,94,0.00,,,0.00,Wunderground v.1.15,2013-07-08 02:00:00,
2013-07-07 22:05:00,76.4,74.5,30.12,SW,236,0.0,0.0,94,0.00,,,0.00,Wunderground v.1.15,2013-07-08 02:05:00,
2013-07-07 22:15:00,76.2,74.3,30.12,SW,236,0.0,0.0,94,0.00,,,0.00,Wunderground v.1.15,2013-07-08 02:15:00,
2013-07-07 22:20:00,76.3,74.4,30.12,SW,236,0.0,0.0,94,0.00,,,0.00,Wunderground v.1.15,2013-07-08 02:20:00,
2013-07-07 22:30:00,76.4,74.5,30.12,SW,236,0.0,0.0,94,0.00,,,0.00,Wunderground v.1.15,2013-07-08 02:30:00,
2013-07-07 22:35:00,76.5,74.6,30.12,SW,236,0.0,0.0,94,0.00,,,0.00,Wunderground v.1.15,2013-07-08 02:35:00,
2013-07-07 22:40:00,76.6,74.7,30.12,SW,236,0.0,0.0,94,0.00,,,0.00,Wunderground v.1.15,2013-07-08 02:40:00,
2013-07-07 22:45:00,76.6,74.7,30.12,SW,236,0.0,0.0,94,0.00,,,0.00,Wunderground v.1.15,2013-07-08 02:45:00,
2013-07-07 22:55:00,76.6,74.7,30.12,SW,236,0.0,0.0,94,0.00,,,0.00,Wunderground v.1.15,2013-07-08 02:55:00,
2013-07-07 23:00:00,76.6,74.7,30.13,SW,236,0.0,0.0,94,0.00,,,0.00,Wunderground v.1.15,2013-07-08 03:00:00,
2013-07-07 23:05:00,76.6,74.7,30.13,SW,236,0.0,0.0,94,0.00,,,0.00,Wunderground v.1.15,2013-07-08 03:05:00,
2013-07-07 23:15:00,76.7,74.8,30.13,SW,236,0.0,0.0,94,0.00,,,0.00,Wunderground v.1.15,2013-07-08 03:15:00,
2013-07-07 23:20:00,76.9,75.0,30.13,SW,236,0.0,0.0,94,0.00,,,0.00,Wunderground v.1.15,2013-07-08 03:20:00,
2013-07-07 23:25:00,77.0,74.8,30.13,SW,236,0.0,0.0,93,0.00,,,0.00,Wunderground v.1.15,2013-07-08 03:25:00,
2013-07-07 23:35:00,77.2,75.0,30.13,SW,236,0.0,0.0,93,0.00,,,0.00,Wunderground v.1.15,2013-07-08 03:35:00,
2013-07-07 23:40:00,77.2,75.0,30.13,SW,236,0.0,0.0,93,0.00,,,0.00,Wunderground v.1.15,2013-07-08 03:40:00,
2013-07-07 23:45:00,77.2,75.0,30.13,SW,236,0.0,0.0,93,0.00,,,0.00,Wunderground v.1.15,2013-07-08 03:45:00,
2013-07-07 23:55:00,77.2,75.3,30.13,SW,236,0.0,0.0,94,0.00,,,0.00,Wunderground v.1.15,2013-07-08 03:55:00,